Time;durP1;ratioP1;P1;durP2;ratioP2;P2;SDS_P1;SDS_P2;PMS_P1;PMS_P2;Temp;Humidity;BMP_temperature;BMP_pressure;BME280_temperature;BME280_humidity;BME280_pressure;Samples;Min_cycle;Max_cycle;Signal;HPM_P1;HPM_P2
2023/07/25 00:00:08;;;;;;;9.18;3.20;;;12.60;99.90;;;;;;5058110;28;20068;-68
2023/07/25 00:02:33;;;;;;;8.80;3.58;;;12.50;99.90;;;;;;5064851;28;20082;-67
2023/07/25 00:04:59;;;;;;;8.32;3.63;;;12.50;99.90;;;;;;5068686;28;20174;-68
2023/07/25 00:07:24;;;;;;;8.02;3.92;;;12.50;99.90;;;;;;5050311;28;20188;-67
2023/07/25 00:09:50;;;;;;;7.43;3.75;;;12.50;99.90;;;;;;5050573;28;20040;-67
2023/07/25 00:12:16;;;;;;;9.77;3.40;;;12.50;99.90;;;;;;5036487;28;20037;-68
2023/07/25 00:14:41;;;;;;;8.80;3.72;;;12.40;99.90;;;;;;5056839;28;20064;-67
2023/07/25 00:17:07;;;;;;;10.07;3.35;;;12.40;99.90;;;;;;5055482;28;20116;-67
2023/07/25 00:19:32;;;;;;;10.20;3.90;;;12.40;99.90;;;;;;5044423;28;20066;-68
2023/07/25 00:21:58;;;;;;;7.38;3.30;;;12.40;99.90;;;;;;5029341;28;20041;-67
2023/07/25 00:24:23;;;;;;;6.32;3.60;;;12.40;99.90;;;;;;5039302;28;20070;-67
2023/07/25 00:26:49;;;;;;;5.00;3.72;;;12.30;99.90;;;;;;5054317;28;20037;-67
2023/07/25 00:29:15;;;;;;;6.57;3.63;;;12.30;99.90;;;;;;5055968;28;20058;-67
2023/07/25 00:31:40;;;;;;;9.75;3.20;;;12.30;99.90;;;;;;5066166;28;20040;-68
2023/07/25 00:34:06;;;;;;;8.15;3.85;;;12.20;99.90;;;;;;5048559;28;20115;-67
2023/07/25 00:36:32;;;;;;;6.75;3.38;;;12.20;99.90;;;;;;5046132;28;20087;-68
2023/07/25 00:38:58;;;;;;;12.48;4.65;;;12.20;99.90;;;;;;5048903;28;20461;-67
2023/07/25 00:41:24;;;;;;;8.07;3.90;;;12.20;99.90;;;;;;5064632;28;20115;-68
2023/07/25 00:43:49;;;;;;;8.40;3.67;;;12.10;99.90;;;;;;5066165;28;20060;-67
2023/07/25 00:46:16;;;;;;;7.75;3.45;;;12.10;99.90;;;;;;5061218;28;20048;-67
2023/07/25 00:48:44;;;;;;;7.30;3.65;;;12.10;99.90;;;;;;5061432;28;20033;-67
2023/07/25 00:51:10;;;;;;;7.80;3.42;;;12.10;99.90;;;;;;5047887;28;20098;-68
2023/07/25 00:53:36;;;;;;;7.25;3.38;;;12.00;99.90;;;;;;5061826;28;20492;-67
2023/07/25 00:56:01;;;;;;;7.30;3.72;;;12.00;99.90;;;;;;5062222;28;20029;-67
2023/07/25 00:58:29;;;;;;;8.07;3.75;;;12.00;99.90;;;;;;5062538;28;20032;-68
2023/07/25 01:01:02;;;;;;;7.22;3.55;;;11.90;99.90;;;;;;5044271;28;20040;-68
2023/07/25 01:03:28;;;;;;;6.13;3.28;;;11.90;99.90;;;;;;5064933;28;20045;-68
2023/07/25 01:05:54;;;;;;;7.97;3.70;;;11.90;99.90;;;;;;5062937;28;20040;-67
2023/07/25 01:08:20;;;;;;;7.22;3.67;;;12.00;99.90;;;;;;5049400;28;20494;-67
2023/07/25 01:10:45;;;;;;;7.90;3.30;;;11.90;99.90;;;;;;5046580;28;20044;-68
2023/07/25 01:13:11;;;;;;;12.50;4.20;;;11.90;99.90;;;;;;5064239;28;20048;-67
2023/07/25 01:15:37;;;;;;;7.55;3.40;;;11.90;99.90;;;;;;5065666;28;20041;-69
2023/07/25 01:18:03;;;;;;;7.70;3.72;;;11.90;99.90;;;;;;5064283;28;20491;-68
2023/07/25 01:20:29;;;;;;;8.57;4.18;;;11.90;99.90;;;;;;5060681;28;20055;-67
2023/07/25 01:22:56;;;;;;;9.80;4.00;;;11.90;99.90;;;;;;5061331;28;20493;-68
2023/07/25 01:25:21;;;;;;;9.00;4.38;;;11.90;99.90;;;;;;5047669;28;20090;-67
2023/07/25 01:27:47;;;;;;;9.73;3.63;;;11.90;99.90;;;;;;5062800;28;20490;-67
2023/07/25 01:30:12;;;;;;;9.52;4.05;;;11.90;99.90;;;;;;5043143;28;20040;-68
2023/07/25 01:32:38;;;;;;;8.00;3.78;;;11.80;99.90;;;;;;5048483;28;20086;-67
2023/07/25 01:35:04;;;;;;;8.65;3.67;;;11.90;99.90;;;;;;5060607;28;20037;-67
2023/07/25 01:37:29;;;;;;;5.88;3.85;;;11.90;99.90;;;;;;5046698;28;20770;-67
2023/07/25 01:39:55;;;;;;;10.80;3.80;;;11.90;99.90;;;;;;5045235;28;20064;-67
2023/07/25 01:42:21;;;;;;;7.68;3.88;;;11.90;99.90;;;;;;5046613;28;20089;-67
2023/07/25 01:44:46;;;;;;;6.45;3.70;;;11.90;99.90;;;;;;5066825;28;20060;-67
2023/07/25 01:47:12;;;;;;;5.90;3.20;;;11.90;99.90;;;;;;5064143;28;20048;-68
2023/07/25 01:49:38;;;;;;;9.02;4.05;;;11.90;99.90;;;;;;5045738;28;20036;-68
2023/07/25 01:52:03;;;;;;;8.63;4.57;;;11.90;99.90;;;;;;5044567;28;20131;-68
2023/07/25 01:54:29;;;;;;;6.80;3.90;;;12.00;99.90;;;;;;5046999;28;20036;-68
2023/07/25 01:56:55;;;;;;;7.32;3.35;;;11.90;99.90;;;;;;5049214;28;20039;-68
2023/07/25 01:59:20;;;;;;;9.80;3.80;;;11.90;99.90;;;;;;5046358;28;20129;-68
2023/07/25 02:01:46;;;;;;;9.02;3.60;;;11.90;99.90;;;;;;5049167;28;20032;-67
2023/07/25 02:04:11;;;;;;;7.70;3.92;;;12.00;99.90;;;;;;5066155;28;20040;-68
2023/07/25 02:06:37;;;;;;;10.68;3.80;;;11.90;99.90;;;;;;5055709;28;20052;-67
2023/07/25 02:09:02;;;;;;;6.68;3.72;;;11.90;99.90;;;;;;5063004;28;20040;-67
2023/07/25 02:11:28;;;;;;;6.78;3.33;;;11.90;99.90;;;;;;5041180;28;20498;-68
2023/07/25 02:13:54;;;;;;;8.95;3.67;;;11.90;99.90;;;;;;5033659;28;20137;-67
2023/07/25 02:16:19;;;;;;;10.98;3.45;;;11.90;99.90;;;;;;5044106;28;20353;-67
2023/07/25 02:18:45;;;;;;;10.90;3.72;;;11.90;99.90;;;;;;5037912;28;20506;-68
2023/07/25 02:21:11;;;;;;;7.75;4.05;;;11.90;99.90;;;;;;5049612;28;20029;-68
2023/07/25 02:23:36;;;;;;;8.30;3.35;;;12.00;99.90;;;;;;5044990;28;20507;-67
2023/07/25 02:26:02;;;;;;;6.93;3.33;;;12.00;99.90;;;;;;5071456;28;20128;-67
2023/07/25 02:28:27;;;;;;;11.65;3.53;;;12.00;99.90;;;;;;5067400;28;20067;-67
2023/07/25 02:30:53;;;;;;;7.18;3.28;;;12.00;99.90;;;;;;5071675;28;20787;-67
2023/07/25 02:33:19;;;;;;;8.93;3.42;;;12.10;99.90;;;;;;5072376;28;20119;-68
2023/07/25 02:35:44;;;;;;;7.95;3.83;;;12.20;99.90;;;;;;5067923;28;20067;-67
2023/07/25 02:38:10;;;;;;;9.40;3.85;;;12.20;99.90;;;;;;5048543;28;20044;-67
2023/07/25 02:40:36;;;;;;;9.48;3.72;;;12.20;99.90;;;;;;5068019;28;20041;-67
2023/07/25 02:43:07;;;;;;;9.77;3.63;;;12.30;99.90;;;;;;5070771;28;20043;-67
2023/07/25 02:45:34;;;;;;;6.78;3.50;;;12.30;99.90;;;;;;5072225;28;20044;-68
2023/07/25 02:48:00;;;;;;;8.82;4.07;;;12.30;99.90;;;;;;5044630;28;20095;-68
2023/07/25 02:50:25;;;;;;;5.70;3.25;;;12.30;99.90;;;;;;5068343;28;20044;-67
2023/07/25 02:52:51;;;;;;;8.48;3.20;;;12.30;99.90;;;;;;5053797;28;20044;-67
2023/07/25 02:55:18;;;;;;;9.07;3.45;;;12.30;99.90;;;;;;5072805;28;20724;-68
2023/07/25 02:57:43;;;;;;;10.57;3.63;;;12.30;99.90;;;;;;5071742;28;20036;-67
2023/07/25 03:00:09;;;;;;;8.07;3.35;;;12.30;99.90;;;;;;5067383;28;20113;-68
2023/07/25 03:02:35;;;;;;;9.63;3.83;;;12.30;99.90;;;;;;5052779;28;20041;-69
2023/07/25 03:05:00;;;;;;;11.02;3.70;;;12.30;99.90;;;;;;5069018;28;20039;-67
2023/07/25 03:07:26;;;;;;;15.27;3.65;;;12.30;99.90;;;;;;5073365;28;20123;-67
2023/07/25 03:09:51;;;;;;;9.18;3.60;;;12.30;99.90;;;;;;5070980;28;20029;-68
2023/07/25 03:12:18;;;;;;;5.75;3.53;;;12.30;99.90;;;;;;5069853;28;20045;-68
2023/07/25 03:14:44;;;;;;;7.30;3.38;;;12.20;99.90;;;;;;5051747;28;20041;-67
2023/07/25 03:17:09;;;;;;;7.88;3.13;;;12.20;99.90;;;;;;5055370;28;20048;-68
2023/07/25 03:19:35;;;;;;;11.00;3.63;;;12.20;99.90;;;;;;5053658;28;20135;-67
2023/07/25 03:22:00;;;;;;;8.15;3.80;;;12.20;99.90;;;;;;5045620;28;20044;-67
2023/07/25 03:24:26;;;;;;;6.60;3.53;;;12.20;99.90;;;;;;5046019;28;20043;-67
2023/07/25 03:26:51;;;;;;;8.50;3.40;;;12.20;99.90;;;;;;5071087;28;20025;-67
2023/07/25 03:29:17;;;;;;;7.95;3.70;;;12.20;99.90;;;;;;5049564;28;20167;-67
2023/07/25 03:31:42;;;;;;;9.27;3.63;;;12.10;99.90;;;;;;5068127;28;20473;-67
2023/07/25 03:34:08;;;;;;;7.25;3.10;;;12.10;99.90;;;;;;5066518;28;20036;-68
2023/07/25 03:36:34;;;;;;;8.90;3.10;;;12.20;99.90;;;;;;5064751;28;20684;-67
2023/07/25 03:38:59;;;;;;;9.30;3.90;;;12.20;99.90;;;;;;5044574;28;20040;-67
2023/07/25 03:41:25;;;;;;;9.18;3.25;;;12.20;99.90;;;;;;5064798;28;20040;-67
2023/07/25 03:43:50;;;;;;;9.75;3.47;;;12.30;99.90;;;;;;5067114;28;20060;-67
2023/07/25 03:46:16;;;;;;;10.38;3.65;;;12.30;99.90;;;;;;5065464;28;20117;-68
2023/07/25 03:48:41;;;;;;;8.90;3.50;;;12.40;99.90;;;;;;5034787;28;20045;-68
2023/07/25 03:51:07;;;;;;;7.53;3.30;;;12.30;99.90;;;;;;5059398;28;20140;-67
2023/07/25 03:53:32;;;;;;;6.90;3.00;;;12.30;99.90;;;;;;5064725;28;20129;-67
2023/07/25 03:55:58;;;;;;;10.80;3.38;;;12.40;99.90;;;;;;5053480;28;20627;-68
2023/07/25 03:58:23;;;;;;;7.30;3.15;;;12.40;99.90;;;;;;5050794;28;20040;-67
2023/07/25 04:00:49;;;;;;;6.90;3.15;;;12.40;99.90;;;;;;5048654;28;20040;-67
2023/07/25 04:03:14;;;;;;;6.60;3.20;;;12.50;99.90;;;;;;5066995;28;20071;-67
2023/07/25 04:05:40;;;;;;;7.57;3.30;;;12.50;99.90;;;;;;5062792;28;20128;-68
2023/07/25 04:08:06;;;;;;;5.20;3.20;;;12.50;99.90;;;;;;5048831;28;20364;-67
2023/07/25 04:10:31;;;;;;;6.18;3.22;;;12.60;99.90;;;;;;5059880;28;20130;-68
2023/07/25 04:12:57;;;;;;;10.10;3.30;;;12.60;99.90;;;;;;5060078;28;20052;-67
2023/07/25 04:15:22;;;;;;;8.32;3.50;;;12.60;99.90;;;;;;5057850;28;20036;-68
2023/07/25 04:17:48;;;;;;;9.68;3.72;;;12.60;99.90;;;;;;5063692;28;20038;-68
2023/07/25 04:20:13;;;;;;;6.20;3.33;;;12.60;99.90;;;;;;5057697;28;20032;-68
2023/07/25 04:22:39;;;;;;;8.40;3.42;;;12.70;99.90;;;;;;5062911;28;20040;-68
2023/07/25 04:25:05;;;;;;;8.07;3.13;;;12.70;99.90;;;;;;5044722;28;20044;-68
2023/07/25 04:27:31;;;;;;;8.63;3.50;;;12.80;99.90;;;;;;5058336;28;20071;-68
2023/07/25 04:29:57;;;;;;;6.90;3.17;;;12.80;99.90;;;;;;5060178;28;20388;-67
2023/07/25 04:32:22;;;;;;;10.20;3.78;;;12.80;99.90;;;;;;5063016;28;20056;-68
2023/07/25 04:34:48;;;;;;;8.98;3.40;;;12.90;99.90;;;;;;5045339;28;20387;-68
2023/07/25 04:37:13;;;;;;;6.85;2.90;;;12.90;99.90;;;;;;5067398;28;20032;-68
2023/07/25 04:39:39;;;;;;;10.32;3.03;;;13.00;99.90;;;;;;5063552;28;20067;-68
2023/07/25 04:42:05;;;;;;;9.80;3.70;;;12.90;99.90;;;;;;5067454;28;20041;-68
2023/07/25 04:44:30;;;;;;;9.23;2.78;;;13.00;99.90;;;;;;5047275;28;20048;-68
2023/07/25 04:46:56;;;;;;;12.02;3.55;;;13.00;99.90;;;;;;5062188;28;20981;-67
2023/07/25 04:49:22;;;;;;;7.47;3.03;;;13.00;99.90;;;;;;5043368;28;20119;-67
2023/07/25 04:51:47;;;;;;;8.68;3.15;;;13.00;99.90;;;;;;5061131;28;20052;-67
2023/07/25 04:54:13;;;;;;;6.43;2.88;;;13.00;99.90;;;;;;5039080;28;20125;-67
2023/07/25 04:56:41;;;;;;;6.93;3.70;;;13.00;99.90;;;;;;5060597;28;20090;-67
2023/07/25 04:59:07;;;;;;;7.47;3.00;;;13.00;99.90;;;;;;5063607;28;20484;-67
2023/07/25 05:01:32;;;;;;;9.23;3.90;;;13.00;99.90;;;;;;5061692;28;20040;-67
2023/07/25 05:03:58;;;;;;;6.47;2.58;;;13.00;99.90;;;;;;5043750;28;20101;-68
2023/07/25 05:06:23;;;;;;;9.65;3.38;;;13.00;99.90;;;;;;5044743;28;20135;-67
2023/07/25 05:08:49;;;;;;;8.82;2.88;;;13.10;99.90;;;;;;5050143;28;20491;-68
2023/07/25 05:11:15;;;;;;;13.23;3.28;;;13.20;99.90;;;;;;5061202;28;20082;-67
2023/07/25 05:13:40;;;;;;;10.10;3.25;;;13.20;99.90;;;;;;5050195;28;20036;-68
2023/07/25 05:16:06;;;;;;;4.53;2.90;;;13.30;99.90;;;;;;5042506;28;20147;-68
2023/07/25 05:18:31;;;;;;;9.52;3.60;;;13.30;99.90;;;;;;5065613;28;20032;-67
2023/07/25 05:20:57;;;;;;;7.65;2.83;;;13.30;99.90;;;;;;5045238;28;20098;-67
2023/07/25 05:23:22;;;;;;;6.28;3.17;;;13.40;99.90;;;;;;5062127;28;20146;-67
2023/07/25 05:25:48;;;;;;;6.25;3.03;;;13.40;99.90;;;;;;5063103;28;20043;-68
2023/07/25 05:28:14;;;;;;;7.60;2.95;;;13.40;99.90;;;;;;5046658;28;20154;-68
2023/07/25 05:30:39;;;;;;;9.93;3.20;;;13.50;99.90;;;;;;5046985;28;20091;-68
2023/07/25 05:33:06;;;;;;;6.68;2.95;;;13.50;99.90;;;;;;5044401;28;20128;-67
2023/07/25 05:35:31;;;;;;;7.10;2.90;;;13.50;99.90;;;;;;5039272;28;20120;-67
2023/07/25 05:37:57;;;;;;;7.90;3.30;;;13.60;99.90;;;;;;5047824;28;20124;-68
2023/07/25 05:40:22;;;;;;;11.93;2.90;;;13.60;99.90;;;;;;5047370;28;20036;-67
2023/07/25 05:42:48;;;;;;;10.05;2.72;;;13.60;99.90;;;;;;5064828;28;20423;-67
2023/07/25 05:45:14;;;;;;;5.97;2.40;;;13.60;99.90;;;;;;5038359;28;20173;-68
2023/07/25 05:47:39;;;;;;;4.97;2.55;;;13.70;99.90;;;;;;5046501;28;20403;-68
2023/07/25 05:50:06;;;;;;;8.90;3.00;;;13.80;99.90;;;;;;5040172;28;20046;-69
2023/07/25 05:52:31;;;;;;;5.82;2.60;;;14.00;99.90;;;;;;5062898;28;20044;-68
2023/07/25 05:54:57;;;;;;;5.90;2.28;;;14.10;99.90;;;;;;5065146;28;20428;-68
2023/07/25 05:57:22;;;;;;;7.07;2.25;;;14.30;99.90;;;;;;5045893;28;20033;-68
2023/07/25 05:59:48;;;;;;;4.60;2.35;;;14.50;99.90;;;;;;5031185;28;20094;-68
2023/07/25 06:02:16;;;;;;;10.93;3.00;;;14.60;99.90;;;;;;5033744;28;20109;-68
2023/07/25 06:04:43;;;;;;;7.65;2.20;;;14.70;99.90;;;;;;5063914;28;20041;-68
2023/07/25 06:07:08;;;;;;;5.85;2.00;;;14.60;99.90;;;;;;5038257;28;20115;-68
2023/07/25 06:09:34;;;;;;;7.78;2.50;;;14.80;99.90;;;;;;5055604;28;20120;-69
2023/07/25 06:11:59;;;;;;;4.32;1.90;;;15.00;99.90;;;;;;5057446;28;20052;-67
2023/07/25 06:14:25;;;;;;;5.70;2.13;;;15.20;99.90;;;;;;5057159;28;20238;-68
2023/07/25 06:16:50;;;;;;;6.90;1.90;;;15.50;99.90;;;;;;5056926;28;20778;-68
2023/07/25 06:19:16;;;;;;;5.97;1.80;;;15.60;99.90;;;;;;5056882;28;20370;-68
2023/07/25 06:21:41;;;;;;;7.05;1.90;;;15.90;99.90;;;;;;5064441;28;20342;-68
2023/07/25 06:24:07;;;;;;;6.68;1.95;;;16.10;99.90;;;;;;5041866;28;20148;-68
2023/07/25 06:26:33;;;;;;;8.07;1.65;;;16.20;99.90;;;;;;5057057;28;20047;-69
2023/07/25 06:28:58;;;;;;;5.50;1.50;;;16.40;99.90;;;;;;5060041;28;20452;-69
2023/07/25 06:31:24;;;;;;;7.65;2.00;;;16.60;99.90;;;;;;5064609;28;20036;-68
2023/07/25 06:33:49;;;;;;;6.47;1.88;;;16.70;99.90;;;;;;5042083;28;21272;-69
2023/07/25 06:36:15;;;;;;;4.78;1.50;;;16.80;99.90;;;;;;5060818;28;20123;-68
2023/07/25 06:38:41;;;;;;;8.00;1.60;;;16.90;99.60;;;;;;5057047;28;20117;-69
2023/07/25 06:41:06;;;;;;;3.92;1.25;;;16.90;98.60;;;;;;5046739;28;20040;-68
2023/07/25 06:43:32;;;;;;;8.23;1.67;;;17.00;97.60;;;;;;5041916;28;20128;-69
2023/07/25 06:45:57;;;;;;;5.38;1.48;;;17.20;96.60;;;;;;5043246;28;20049;-69
2023/07/25 06:48:23;;;;;;;4.43;1.40;;;17.40;96.10;;;;;;5033752;28;20452;-69
2023/07/25 06:50:49;;;;;;;4.60;1.30;;;17.50;95.30;;;;;;5051316;28;20373;-69
2023/07/25 06:53:14;;;;;;;7.38;1.60;;;17.60;94.70;;;;;;5039571;28;20039;-69
2023/07/25 06:55:40;;;;;;;6.32;1.17;;;17.90;93.70;;;;;;5061094;28;20045;-69
2023/07/25 06:58:05;;;;;;;5.30;1.20;;;18.10;92.90;;;;;;5035246;28;20029;-69
2023/07/25 07:00:34;;;;;;;7.10;1.42;;;18.20;92.40;;;;;;5040837;28;20044;-69
2023/07/25 07:02:59;;;;;;;6.60;1.25;;;18.30;91.80;;;;;;5038573;28;20438;-70
2023/07/25 07:05:25;;;;;;;2.92;1.00;;;18.50;91.00;;;;;;5048291;28;20029;-69
2023/07/25 07:07:50;;;;;;;5.65;1.20;;;18.70;89.00;;;;;;5035287;28;20448;-69
2023/07/25 07:10:16;;;;;;;3.47;1.00;;;18.90;87.00;;;;;;5055520;28;20082;-70
2023/07/25 07:12:47;;;;;;;4.93;0.90;;;19.00;85.40;;;;;;5057984;28;20399;-69
2023/07/25 07:15:14;;;;;;;6.60;1.20;;;19.10;83.50;;;;;;5036793;28;20045;-70
2023/07/25 07:17:40;;;;;;;4.18;1.00;;;19.10;81.20;;;;;;5053524;28;20465;-72
2023/07/25 07:20:06;;;;;;;5.55;0.90;;;19.00;79.30;;;;;;5036347;28;20498;-70
2023/07/25 07:22:32;;;;;;;4.70;1.10;;;19.00;77.80;;;;;;5056106;28;20128;-69
2023/07/25 07:24:57;;;;;;;5.50;1.40;;;19.10;76.40;;;;;;5060807;28;20067;-70
2023/07/25 07:27:23;;;;;;;2.22;0.95;;;19.30;75.60;;;;;;5064521;28;20040;-70
2023/07/25 07:29:52;;;;;;;3.70;0.80;;;19.20;75.10;;;;;;5060694;28;20499;-69
2023/07/25 07:32:17;;;;;;;3.40;0.73;;;19.20;75.00;;;;;;5049360;28;20055;-70
2023/07/25 07:34:43;;;;;;;6.15;0.85;;;19.40;74.10;;;;;;5052514;28;20037;-69
2023/07/25 07:37:08;;;;;;;2.20;0.60;;;19.40;73.30;;;;;;5058179;28;20045;-70
2023/07/25 07:39:35;;;;;;;2.58;0.93;;;19.60;73.00;;;;;;5061921;28;20108;-70
2023/07/25 07:42:01;;;;;;;3.67;0.60;;;19.60;72.70;;;;;;5036463;28;20055;-70
2023/07/25 07:44:26;;;;;;;3.67;0.70;;;19.80;72.10;;;;;;5055020;28;20045;-71
2023/07/25 07:46:52;;;;;;;1.77;0.70;;;20.00;71.40;;;;;;5064723;28;20100;-77
2023/07/25 07:49:17;;;;;;;4.20;1.02;;;20.30;69.80;;;;;;5049761;28;20098;-70
2023/07/25 07:51:43;;;;;;;2.53;0.75;;;20.60;68.50;;;;;;5031365;28;20041;-68
2023/07/25 07:54:08;;;;;;;2.55;0.90;;;20.90;67.60;;;;;;5058196;28;20052;-69
2023/07/25 07:56:34;;;;;;;3.28;0.90;;;21.10;66.10;;;;;;5064058;28;20024;-70
2023/07/25 07:58:59;;;;;;;2.78;0.63;;;21.10;65.00;;;;;;5066545;28;20078;-70
2023/07/25 08:01:25;;;;;;;1.75;0.63;;;21.20;62.90;;;;;;5062075;28;20044;-70
2023/07/25 08:03:51;;;;;;;1.38;0.35;;;21.30;62.80;;;;;;5033053;28;20048;-73
2023/07/25 08:06:16;;;;;;;7.00;0.90;;;21.50;61.00;;;;;;5051654;28;20102;-70
2023/07/25 08:08:42;;;;;;;1.98;0.50;;;21.50;60.70;;;;;;5034381;28;20195;-71
2023/07/25 08:11:08;;;;;;;1.40;0.30;;;21.70;59.90;;;;;;5063617;28;20117;-71
2023/07/25 08:13:33;;;;;;;1.80;0.40;;;21.90;59.50;;;;;;5066216;28;20411;-70
2023/07/25 08:16:00;;;;;;;1.88;0.55;;;22.10;59.40;;;;;;5053322;28;20037;-70
2023/07/25 08:18:25;;;;;;;3.40;0.40;;;22.50;57.80;;;;;;5032926;28;20068;-71
2023/07/25 08:20:58;;;;;;;2.15;0.70;;;22.80;56.90;;;;;;5058542;28;20742;-70
2023/07/25 08:23:24;;;;;;;3.03;0.55;;;22.90;54.90;;;;;;5043698;28;20044;-71
2023/07/25 08:25:50;;;;;;;5.25;1.15;;;23.00;55.60;;;;;;5040747;28;20460;-71
2023/07/25 08:28:16;;;;;;;4.40;0.55;;;23.10;54.70;;;;;;5054516;28;20047;-70
2023/07/25 08:30:42;;;;;;;3.92;0.70;;;23.40;52.30;;;;;;5090257;28;20421;-69
2023/07/25 08:33:08;;;;;;;3.50;0.82;;;23.20;51.70;;;;;;5065920;28;20045;-70
2023/07/25 08:35:33;;;;;;;4.22;0.60;;;23.40;51.10;;;;;;5067306;28;20058;-70
2023/07/25 08:37:59;;;;;;;2.22;0.40;;;23.20;50.40;;;;;;5047147;28;20499;-72
2023/07/25 08:40:24;;;;;;;1.58;0.47;;;23.50;50.40;;;;;;5046042;28;20430;-69
2023/07/25 08:42:51;;;;;;;1.15;0.38;;;23.50;50.70;;;;;;5071103;28;20064;-69
2023/07/25 08:45:19;;;;;;;2.08;0.50;;;23.40;49.90;;;;;;5045035;28;20518;-69
2023/07/25 08:47:45;;;;;;;1.50;0.40;;;22.90;50.10;;;;;;5051178;28;20483;-70
2023/07/25 08:50:14;;;;;;;1.10;0.40;;;22.60;50.30;;;;;;5063325;28;20028;-70
2023/07/25 08:52:46;;;;;;;2.88;0.60;;;22.90;49.80;;;;;;5025693;28;20072;-71
2023/07/25 08:55:12;;;;;;;2.05;0.50;;;23.50;49.60;;;;;;5068715;28;20506;-69
2023/07/25 08:57:39;;;;;;;4.82;0.70;;;24.10;49.40;;;;;;5065316;28;20119;-70
2023/07/25 09:00:06;;;;;;;2.95;0.98;;;24.70;47.70;;;;;;5064244;28;20140;-70
2023/07/25 09:02:32;;;;;;;3.08;0.45;;;24.50;46.90;;;;;;5033010;28;20041;-73
2023/07/25 09:04:58;;;;;;;3.00;0.40;;;24.30;47.20;;;;;;5057159;28;20188;-70
2023/07/25 09:07:24;;;;;;;3.13;0.60;;;23.90;47.20;;;;;;5063255;28;20456;-70
2023/07/25 09:09:50;;;;;;;1.38;0.73;;;23.60;47.90;;;;;;5067178;28;20046;-70
2023/07/25 09:12:15;;;;;;;2.17;0.52;;;23.70;46.70;;;;;;5068002;28;20105;-69
2023/07/25 09:14:43;;;;;;;2.95;0.75;;;24.40;45.30;;;;;;5055791;28;20334;-70
2023/07/25 09:17:09;;;;;;;0.93;0.40;;;25.20;45.10;;;;;;5063564;28;20090;-70
2023/07/25 09:19:34;;;;;;;0.80;0.68;;;25.00;43.30;;;;;;5063974;28;20037;-70
2023/07/25 09:22:00;;;;;;;2.88;0.60;;;24.80;43.60;;;;;;5020994;28;20097;-69
2023/07/25 09:24:39;;;;;;;3.30;0.57;;;24.40;44.00;;;;;;5031553;28;20177;-69
2023/07/25 09:27:18;;;;;;;3.30;0.60;;;24.80;43.30;;;;;;5067585;28;20036;-70
2023/07/25 09:29:45;;;;;;;6.38;1.13;;;25.40;42.50;;;;;;5066386;28;20473;-70
2023/07/25 09:32:22;;;;;;;1.73;0.52;;;26.00;42.40;;;;;;5045869;28;20453;-69
2023/07/25 09:35:06;;;;;;;2.88;0.60;;;26.70;38.60;;;;;;5063895;28;20042;-70
2023/07/25 09:37:32;;;;;;;1.92;0.75;;;26.50;38.30;;;;;;5046109;28;20085;-70
2023/07/25 09:39:58;;;;;;;2.58;0.52;;;25.90;40.90;;;;;;5061846;28;20420;-70
2023/07/25 09:42:25;;;;;;;2.88;0.60;;;25.10;42.20;;;;;;5063777;28;20039;-70
2023/07/25 09:44:52;;;;;;;1.83;0.35;;;24.60;42.60;;;;;;5046606;28;20063;-69
2023/07/25 09:47:24;;;;;;;1.48;0.40;;;24.00;42.80;;;;;;5065385;28;20115;-69
2023/07/25 09:49:51;;;;;;;3.33;0.80;;;23.70;42.70;;;;;;5043917;28;20049;-70
2023/07/25 09:52:17;;;;;;;4.20;0.70;;;24.10;43.30;;;;;;5045630;28;20119;-70
2023/07/25 09:54:43;;;;;;;2.25;0.63;;;24.60;42.50;;;;;;5061710;28;20556;-70
2023/07/25 09:57:09;;;;;;;1.48;0.55;;;24.80;42.30;;;;;;5067398;28;20060;-70
2023/07/25 09:59:36;;;;;;;3.40;0.95;;;25.00;42.20;;;;;;5031783;28;20423;-70
2023/07/25 10:02:02;;;;;;;2.25;0.77;;;24.80;41.60;;;;;;5013618;28;20036;-70
2023/07/25 10:04:29;;;;;;;2.72;0.70;;;24.10;41.80;;;;;;5049526;28;20102;-70
2023/07/25 10:06:56;;;;;;;3.05;0.50;;;24.10;42.40;;;;;;5063069;28;20380;-70
2023/07/25 10:09:24;;;;;;;1.85;0.60;;;24.90;41.70;;;;;;5029692;28;20131;-69
2023/07/25 10:11:50;;;;;;;2.67;0.55;;;26.10;39.50;;;;;;5067729;28;20063;-69
2023/07/25 10:14:16;;;;;;;1.50;0.40;;;27.30;37.90;;;;;;5038895;28;20116;-69
2023/07/25 10:16:42;;;;;;;1.85;0.70;;;28.20;36.00;;;;;;5036041;28;20120;-70
2023/07/25 10:19:08;;;;;;;1.48;0.73;;;29.00;35.20;;;;;;5064200;28;20444;-70
2023/07/25 10:21:51;;;;;;;2.33;0.70;;;30.00;34.20;;;;;;5037507;28;20175;-70
2023/07/25 10:24:17;;;;;;;1.27;0.60;;;30.20;33.90;;;;;;5046224;28;20044;-71
2023/07/25 10:26:53;;;;;;;2.78;0.80;;;30.40;33.60;;;;;;5056957;28;20361;-70
2023/07/25 10:29:35;;;;;;;1.48;0.40;;;30.40;32.80;;;;;;5061321;28;20037;-71
2023/07/25 10:32:02;;;;;;;1.25;0.40;;;30.30;33.40;;;;;;5046283;28;20333;-70
2023/07/25 10:34:44;;;;;;;2.38;0.65;;;30.30;33.70;;;;;;5044368;28;20124;-73
2023/07/25 10:37:27;;;;;;;3.45;0.63;;;30.00;30.30;;;;;;5064338;28;20051;-70
2023/07/25 10:40:03;;;;;;;4.13;0.47;;;29.60;33.70;;;;;;5064191;28;20096;-69
2023/07/25 10:42:46;;;;;;;3.03;0.60;;;28.10;34.50;;;;;;5050062;28;20075;-70
2023/07/25 10:45:28;;;;;;;2.53;0.50;;;27.00;36.00;;;;;;5070555;28;20292;-69
2023/07/25 10:48:01;;;;;;;3.95;0.98;;;26.10;37.10;;;;;;5070566;28;20488;-69
2023/07/25 10:50:28;;;;;;;3.17;0.77;;;25.40;39.20;;;;;;5049600;28;20124;-73
2023/07/25 10:52:54;;;;;;;2.28;0.52;;;24.80;40.00;;;;;;5059190;28;20037;-69
2023/07/25 10:55:19;;;;;;;1.55;0.45;;;24.50;40.60;;;;;;5053663;28;20055;-69
2023/07/25 10:58:11;;;;;;;1.90;0.60;;;24.50;40.70;;;;;;5041949;28;20397;-69
2023/07/25 11:00:38;;;;;;;2.20;0.60;;;24.50;40.30;;;;;;5043183;28;20144;-69
2023/07/25 11:03:29;;;;;;;1.52;0.45;;;24.50;40.60;;;;;;5050432;28;20077;-70
2023/07/25 11:06:07;;;;;;;2.40;0.50;;;24.60;40.30;;;;;;5030924;28;20068;-69
2023/07/25 11:08:38;;;;;;;5.50;0.70;;;24.70;39.70;;;;;;5042300;28;20052;-69
2023/07/25 11:11:09;;;;;;;3.10;0.80;;;24.60;40.40;;;;;;5032669;28;20041;-70
2023/07/25 11:13:36;;;;;;;1.98;0.50;;;24.60;40.00;;;;;;5045685;28;20129;-69
2023/07/25 11:16:03;;;;;;;3.80;0.50;;;24.30;40.80;;;;;;5049600;28;20056;-69
2023/07/25 11:18:33;;;;;;;3.20;0.73;;;24.10;41.60;;;;;;5067349;28;20113;-69
2023/07/25 11:21:04;;;;;;;1.75;0.75;;;24.10;42.10;;;;;;5039700;28;20371;-68
2023/07/25 11:23:30;;;;;;;4.55;0.93;;;24.10;42.30;;;;;;5032655;28;20095;-68
2023/07/25 11:25:57;;;;;;;2.63;0.63;;;23.80;42.30;;;;;;5066584;28;20100;-69
2023/07/25 11:28:23;;;;;;;2.65;0.60;;;23.60;43.30;;;;;;5070736;28;20127;-69
2023/07/25 11:30:51;;;;;;;3.63;0.60;;;23.50;43.70;;;;;;5048789;28;20119;-69
2023/07/25 11:33:17;;;;;;;3.67;0.60;;;23.30;44.40;;;;;;5050998;28;20068;-69
2023/07/25 11:35:42;;;;;;;3.03;1.00;;;23.00;44.90;;;;;;5049632;28;20075;-69
2023/07/25 11:38:10;;;;;;;3.38;0.73;;;23.00;45.50;;;;;;5050825;28;20141;-69
2023/07/25 11:40:38;;;;;;;3.45;0.63;;;23.00;45.80;;;;;;5051040;28;20127;-69
2023/07/25 11:43:11;;;;;;;3.78;0.73;;;23.20;45.40;;;;;;5051061;28;20051;-68
2023/07/25 11:45:37;;;;;;;4.25;1.17;;;23.30;44.60;;;;;;5031440;28;20080;-69
2023/07/25 11:48:06;;;;;;;47.15;5.07;;;23.50;43.20;;;;;;5047659;28;20095;-70
2023/07/25 11:50:37;;;;;;;12.10;2.97;;;23.50;44.00;;;;;;5047326;28;20137;-70
2023/07/25 11:53:03;;;;;;;2.08;0.63;;;24.00;43.10;;;;;;5051871;28;20040;-69
2023/07/25 11:55:29;;;;;;;4.20;0.70;;;24.20;42.60;;;;;;5064954;28;20448;-69
2023/07/25 11:57:55;;;;;;;2.00;0.65;;;24.10;42.30;;;;;;5049640;28;20029;-69
2023/07/25 12:00:22;;;;;;;3.60;0.63;;;23.90;42.70;;;;;;5052136;28;20075;-69
2023/07/25 12:02:47;;;;;;;2.35;1.15;;;23.70;43.10;;;;;;5046087;28;20460;-70
2023/07/25 12:05:27;;;;;;;2.63;0.60;;;23.50;43.30;;;;;;5050345;28;20050;-71
2023/07/25 12:07:58;;;;;;;30.05;2.25;;;23.40;43.20;;;;;;5046836;28;20063;-69
2023/07/25 12:10:32;;;;;;;7.95;1.00;;;23.40;43.50;;;;;;5069461;28;20048;-69
2023/07/25 12:12:59;;;;;;;2.70;0.70;;;23.60;43.00;;;;;;5049014;28;20120;-70
2023/07/25 12:15:44;;;;;;;1.92;0.60;;;23.60;43.10;;;;;;5063870;28;20037;-69
2023/07/25 12:18:34;;;;;;;3.35;1.02;;;23.50;43.20;;;;;;5034914;28;20123;-68
2023/07/25 12:21:01;;;;;;;3.20;1.10;;;23.10;44.10;;;;;;5045031;28;20572;-69
2023/07/25 12:23:28;;;;;;;7.22;1.58;;;22.80;45.00;;;;;;5064623;28;20503;-69
2023/07/25 12:25:55;;;;;;;2.58;0.80;;;22.60;44.90;;;;;;5068575;28;20102;-69
2023/07/25 12:28:21;;;;;;;2.03;0.60;;;22.40;45.40;;;;;;5046990;28;20050;-70
2023/07/25 12:30:47;;;;;;;6.05;1.40;;;22.40;45.20;;;;;;5050696;28;20041;-69
2023/07/25 12:33:12;;;;;;;4.40;0.90;;;22.60;44.70;;;;;;5065401;28;20044;-69
2023/07/25 12:35:38;;;;;;;2.60;0.50;;;22.80;44.90;;;;;;5062242;28;20143;-69
2023/07/25 12:38:04;;;;;;;1.67;0.70;;;23.10;44.90;;;;;;5050255;28;20113;-69
2023/07/25 12:40:30;;;;;;;2.20;0.65;;;23.30;44.30;;;;;;5067321;28;20044;-69
2023/07/25 12:42:55;;;;;;;2.67;0.80;;;23.60;43.30;;;;;;5067510;28;20629;-69